createdAt,value
2022-11-03T00:00:17.374Z,53.70
2022-11-03T00:05:39.500Z,53.40
2022-11-03T00:10:41.739Z,53.80
2022-11-03T00:15:51.341Z,53.70
2022-11-03T00:21:02.411Z,53.70
2022-11-03T00:31:24.817Z,53.60
2022-11-03T00:36:29.072Z,53.70
2022-11-03T00:41:31.626Z,53.80
2022-11-03T00:46:35.687Z,53.50
2022-11-03T00:51:38.207Z,53.70
2022-11-03T00:56:42.381Z,53.70
2022-11-03T01:01:47.726Z,53.70
2022-11-03T01:06:52.672Z,53.70
2022-11-03T01:17:29.465Z,53.70
2022-11-03T01:22:31.737Z,53.70
2022-11-03T01:27:35.413Z,53.50
2022-11-03T01:32:37.639Z,53.70
2022-11-03T01:37:39.853Z,53.60
2022-11-03T01:42:42.179Z,53.60
2022-11-03T01:47:45.904Z,53.90
2022-11-03T01:52:54.850Z,53.40
2022-11-03T02:03:08.248Z,53.80
2022-11-03T02:18:33.546Z,54.00
2022-11-03T02:23:40.894Z,54.60
2022-11-03T02:28:43.292Z,54.30
2022-11-03T02:39:07.216Z,54.50
2022-11-03T02:44:13.630Z,54.90
2022-11-03T02:49:15.752Z,54.60
2022-11-03T02:54:21.900Z,55.20
2022-11-03T02:59:29.479Z,55.20
2022-11-03T03:04:37.394Z,55.20
2022-11-03T03:09:46.633Z,55.30
2022-11-03T03:14:52.104Z,55.30
2022-11-03T03:25:17.054Z,55.90
2022-11-03T03:30:19.713Z,55.70
2022-11-03T03:35:26.491Z,55.90
2022-11-03T03:40:34.408Z,56.10
2022-11-03T03:45:38.244Z,56.00
2022-11-03T03:50:42.606Z,56.20
2022-11-03T03:55:48.361Z,56.00
2022-11-03T04:00:51.199Z,55.90
2022-11-03T04:05:54.766Z,55.20
2022-11-03T04:11:16.872Z,55.60
2022-11-03T04:16:39.088Z,55.50
2022-11-03T04:22:01.207Z,55.40
2022-11-03T04:32:41.371Z,55.20
2022-11-03T04:37:47.675Z,55.30
2022-11-03T04:42:50.620Z,55.20
2022-11-03T04:47:54.106Z,55.10
2022-11-03T04:52:58.514Z,55.20
2022-11-03T04:58:10.415Z,55.30
2022-11-03T05:03:21.005Z,55.30
2022-11-03T05:08:24.305Z,55.40
2022-11-03T05:13:28.950Z,55.80
2022-11-03T05:18:37.006Z,56.10
2022-11-03T05:23:42.277Z,56.40
2022-11-03T05:28:46.574Z,56.60
2022-11-03T05:33:49.929Z,56.90
2022-11-03T05:38:54.263Z,57.10
2022-11-03T05:49:07.152Z,57.00
2022-11-03T05:54:19.563Z,57.10
2022-11-03T05:59:24.609Z,57.10
2022-11-03T06:04:42.326Z,57.20
2022-11-03T06:09:44.578Z,57.20
2022-11-03T06:14:47.033Z,57.20
2022-11-03T06:19:50.573Z,57.60
2022-11-03T06:24:55.668Z,57.50
2022-11-03T06:30:00.507Z,58.20
2022-11-03T06:35:04.204Z,58.00
2022-11-03T06:45:22.807Z,58.80
2022-11-03T06:50:30.065Z,58.20
2022-11-03T06:55:34.539Z,58.60
2022-11-03T07:00:42.132Z,58.80
2022-11-03T07:05:46.106Z,57.80
2022-11-03T07:10:51.737Z,59.00
2022-11-03T07:15:54.096Z,57.10
2022-11-03T07:20:57.329Z,55.40
2022-11-03T07:26:01.582Z,55.50
2022-11-03T07:31:16.755Z,54.80
2022-11-03T07:36:22.035Z,53.20
2022-11-03T07:41:32.898Z,52.90
2022-11-03T07:46:37.147Z,55.30
2022-11-03T07:51:41.332Z,54.30
2022-11-03T07:56:48.482Z,54.70
2022-11-03T08:01:55.293Z,53.80
2022-11-03T08:06:57.911Z,51.30
2022-11-03T08:12:00.881Z,49.80
2022-11-03T08:17:03.094Z,49.70
2022-11-03T08:35:04.710Z,51.30
2022-11-03T08:40:08.417Z,48.20
2022-11-03T08:45:11.502Z,50.50
2022-11-03T08:50:13.750Z,51.50
2022-11-03T08:55:16.550Z,50.60
2022-11-03T09:00:18.697Z,48.00
2022-11-03T09:05:20.760Z,49.50
2022-11-03T09:10:26.405Z,50.20
2022-11-03T09:15:33.181Z,52.60
2022-11-03T09:20:35.386Z,52.60
2022-11-03T09:25:38.707Z,53.80
2022-11-03T09:30:40.836Z,54.40
2022-11-03T09:35:42.942Z,53.00
2022-11-03T09:40:45.092Z,53.80
2022-11-03T09:45:47.225Z,54.40
2022-11-03T09:50:51.892Z,55.30
2022-11-03T09:55:54.678Z,55.40
2022-11-03T10:00:56.792Z,55.00
2022-11-03T10:05:58.936Z,56.40
2022-11-03T10:11:01.872Z,56.90
2022-11-03T10:16:06.017Z,56.70
2022-11-03T10:21:15.643Z,56.60
2022-11-03T10:26:19.184Z,57.00
2022-11-03T10:31:21.558Z,58.20
2022-11-03T10:36:25.626Z,57.90
2022-11-03T10:41:29.173Z,58.00
2022-11-03T10:51:54.881Z,57.10
2022-11-03T10:56:56.946Z,59.40
2022-11-03T11:02:00.171Z,59.30
2022-11-03T11:07:02.437Z,58.70
2022-11-03T11:12:06.301Z,58.20
2022-11-03T11:17:28.307Z,59.00
2022-11-03T11:22:30.399Z,59.10
2022-11-03T11:27:32.490Z,59.30
2022-11-03T11:32:41.986Z,58.90
2022-11-03T11:37:44.672Z,59.00
2022-11-03T11:43:07.282Z,59.20
2022-11-03T11:48:18.976Z,59.50
2022-11-03T11:53:25.061Z,59.50
2022-11-03T11:58:31.315Z,60.50
2022-11-03T12:03:36.747Z,60.00
2022-11-03T12:13:53.747Z,60.00
2022-11-03T12:18:56.292Z,60.90
2022-11-03T12:23:58.434Z,61.30
2022-11-03T12:29:00.527Z,61.70
2022-11-03T12:34:02.962Z,61.20
2022-11-03T12:39:05.134Z,61.60
2022-11-03T12:44:09.769Z,62.00
2022-11-03T12:49:11.891Z,62.70
2022-11-03T12:54:14.110Z,63.30
2022-11-03T12:59:16.216Z,62.90
2022-11-03T13:04:18.351Z,62.30
2022-11-03T13:09:21.142Z,62.30
2022-11-03T13:14:23.227Z,62.60
2022-11-03T13:19:25.319Z,62.40
2022-11-03T13:24:27.399Z,63.50
2022-11-03T13:29:34.134Z,63.20
2022-11-03T13:34:37.748Z,63.80
2022-11-03T13:39:40.087Z,63.10
2022-11-03T13:44:42.287Z,62.80
2022-11-03T13:50:12.409Z,63.10
2022-11-03T14:00:28.848Z,64.70
2022-11-03T14:05:31.014Z,63.80
2022-11-03T14:10:33.141Z,63.30
2022-11-03T14:15:35.289Z,63.70
2022-11-03T14:20:37.647Z,64.10
2022-11-03T14:25:39.782Z,63.00
2022-11-03T14:30:41.948Z,63.20
2022-11-03T14:35:44.106Z,63.30
2022-11-03T14:41:06.376Z,63.80
2022-11-03T14:46:08.725Z,63.10
2022-11-03T14:51:10.890Z,63.30
2022-11-03T14:56:13.002Z,63.20
2022-11-03T15:01:15.319Z,63.90
2022-11-03T15:06:17.479Z,63.60
2022-11-03T15:11:19.577Z,63.30
2022-11-03T15:16:21.976Z,63.90
2022-11-03T15:21:24.080Z,63.60
2022-11-03T15:26:26.213Z,63.00
2022-11-03T15:31:28.354Z,63.30
2022-11-03T15:36:30.912Z,63.20
2022-11-03T15:41:33.330Z,63.00
2022-11-03T15:46:35.997Z,62.90
2022-11-03T15:51:38.228Z,62.60
2022-11-03T15:56:40.714Z,62.50
2022-11-03T16:01:43.280Z,62.40
2022-11-03T16:07:06.726Z,62.30
2022-11-03T16:12:09.794Z,62.00
2022-11-03T16:17:11.972Z,62.10
2022-11-03T16:22:14.205Z,62.10
2022-11-03T16:27:16.327Z,62.10
2022-11-03T16:32:18.383Z,62.10
2022-11-03T16:37:20.479Z,62.10
2022-11-03T16:42:22.886Z,61.90
2022-11-03T16:47:27.100Z,61.90
2022-11-03T16:52:29.180Z,62.20
2022-11-03T16:57:31.290Z,61.90
2022-11-03T17:02:33.854Z,62.30
2022-11-03T17:07:36.898Z,62.40
2022-11-03T17:12:39.526Z,62.30
2022-11-03T17:17:42.096Z,62.10
2022-11-03T17:36:16.902Z,61.20
2022-11-03T17:41:19.671Z,62.10
2022-11-03T17:46:22.252Z,62.00
2022-11-03T17:51:24.352Z,61.80
2022-11-03T17:56:31.147Z,61.80
2022-11-03T18:01:33.723Z,61.70
2022-11-03T18:06:35.904Z,61.70
2022-11-03T18:12:00.236Z,61.60
2022-11-03T18:17:02.550Z,61.50
2022-11-03T18:22:05.417Z,61.60
2022-11-03T18:27:11.954Z,61.60
2022-11-03T18:32:17.236Z,61.50
2022-11-03T18:37:19.320Z,61.50
2022-11-03T18:42:21.584Z,61.40
2022-11-03T18:47:26.865Z,61.50
2022-11-03T18:52:29.098Z,61.40
2022-11-03T18:57:31.180Z,61.60
2022-11-03T19:02:33.328Z,61.60
2022-11-03T19:07:39.763Z,61.60
2022-11-03T19:12:44.064Z,61.60
2022-11-03T19:17:47.562Z,61.70
2022-11-03T19:22:49.618Z,61.60
2022-11-03T19:27:51.769Z,61.60
2022-11-03T19:32:55.038Z,61.60
2022-11-03T19:38:01.436Z,61.60
2022-11-03T19:43:04.733Z,61.60
2022-11-03T19:48:23.684Z,61.60
2022-11-03T19:53:28.484Z,61.60
2022-11-03T19:58:30.569Z,61.80
2022-11-03T20:03:32.686Z,61.90
2022-11-03T20:08:35.279Z,61.80
2022-11-03T20:13:40.612Z,61.80
2022-11-03T20:18:43.393Z,61.90
2022-11-03T20:23:46.242Z,61.90
2022-11-03T20:28:49.190Z,61.80
2022-11-03T20:33:51.289Z,61.80
2022-11-03T20:38:59.174Z,61.90
2022-11-03T20:44:01.340Z,62.00
2022-11-03T20:49:03.926Z,61.80
2022-11-03T20:54:12.453Z,61.90
2022-11-03T20:59:17.703Z,62.30
2022-11-03T21:04:21.169Z,62.30
2022-11-03T21:09:23.949Z,62.40
2022-11-03T21:14:27.793Z,62.40
2022-11-03T21:19:50.874Z,62.60
2022-11-03T21:24:53.038Z,62.50
2022-11-03T21:29:59.372Z,62.70
2022-11-03T21:35:02.117Z,62.70
2022-11-03T21:40:04.324Z,62.70
2022-11-03T21:45:06.763Z,62.70
2022-11-03T21:50:09.092Z,62.60
2022-11-03T21:55:11.140Z,62.70
2022-11-03T22:00:13.538Z,62.70
2022-11-03T22:05:15.638Z,62.70
2022-11-03T22:10:18.005Z,62.70
2022-11-03T22:15:39.976Z,62.70
2022-11-03T22:21:01.915Z,62.70
2022-11-03T22:26:23.903Z,62.70
2022-11-03T22:31:41.586Z,62.90
2022-11-03T22:36:44.008Z,62.80
2022-11-03T22:42:06.759Z,62.80
2022-11-03T22:47:09.776Z,62.80
2022-11-03T22:52:12.530Z,62.80
2022-11-03T22:57:14.630Z,62.80
2022-11-03T23:02:16.864Z,62.80
2022-11-03T23:07:19.040Z,62.70
2022-11-03T23:12:21.091Z,62.70
2022-11-03T23:17:43.045Z,62.60
2022-11-03T23:22:45.146Z,62.70
2022-11-03T23:28:07.097Z,62.60
2022-11-03T23:33:09.630Z,62.60
2022-11-03T23:38:11.890Z,62.70
2022-11-03T23:43:13.992Z,62.60
2022-11-03T23:48:35.942Z,62.70
2022-11-03T23:53:38.014Z,62.70
2022-11-03T23:58:40.124Z,62.70
